Time;durP1;ratioP1;P1;durP2;ratioP2;P2;SDS_P1;SDS_P2;PMS_P1;PMS_P2;Temp;Humidity;BMP_temperature;BMP_pressure;BME280_temperature;BME280_humidity;BME280_pressure;Samples;Min_cycle;Max_cycle;Signal;HPM_P1;HPM_P2
2021/12/21 00:00:59;;;;;;;10.50;5.60;;;;;;;1.84;68.54;98242.61;24620;1346;3052284;-59
2021/12/21 00:03:28;;;;;;;9.30;7.00;;;;;;;1.81;68.66;98249.14;24643;1343;3027225;-60
2021/12/21 00:05:57;;;;;;;7.40;5.50;;;;;;;1.70;68.56;98251.19;24615;1346;3051205;-62
2021/12/21 00:08:26;;;;;;;8.70;6.00;;;;;;;1.63;68.60;98248.55;24611;1354;3026583;-62
2021/12/21 00:10:57;;;;;;;6.60;5.40;;;;;;;1.54;68.70;98248.23;24604;1348;3026469;-60
2021/12/21 00:21:35;;;;;;;11.00;5.40;;;;;;;1.31;70.49;98239.23;24592;1342;3050549;-61
2021/12/21 00:24:19;;;;;;;7.70;5.70;;;;;;;1.24;70.76;98248.15;24612;1345;3051692;-59
2021/12/21 00:26:48;;;;;;;10.90;5.70;;;;;;;1.14;71.07;98248.39;24612;1347;3051580;-60
2021/12/21 00:29:20;;;;;;;8.00;5.50;;;;;;;1.15;71.42;98245.94;24654;1352;3026757;-60
2021/12/21 00:31:50;;;;;;;9.30;6.30;;;;;;;1.15;71.41;98245.91;24635;1352;3026770;-60
2021/12/21 00:34:18;;;;;;;13.10;7.20;;;;;;;1.11;71.62;98239.88;24611;1352;3026366;-63
2021/12/21 00:36:48;;;;;;;12.60;7.90;;;;;;;1.14;71.35;98241.66;24590;1349;3070481;-61
2021/12/21 00:39:17;;;;;;;14.70;7.90;;;;;;;1.17;71.47;98243.59;24598;1346;3026479;-61
2021/12/21 00:41:46;;;;;;;14.70;7.60;;;;;;;1.19;71.52;98238.86;24613;1345;3026762;-63
2021/12/21 00:44:15;;;;;;;14.30;8.60;;;;;;;1.17;71.24;98236.39;24616;1345;3070541;-60
2021/12/21 00:46:44;;;;;;;19.20;8.60;;;;;;;1.11;71.56;98239.19;24614;1346;3026831;-59
2021/12/21 00:49:15;;;;;;;14.90;8.20;;;;;;;1.11;71.68;98239.87;24613;1345;3050876;-60
2021/12/21 00:51:45;;;;;;;10.80;6.40;;;;;;;1.11;71.79;98239.38;24590;1346;3026581;-57
2021/12/21 00:54:15;;;;;;;15.20;7.60;;;;;;;1.70;69.97;98236.66;24625;1345;3026232;-59
2021/12/21 00:56:45;;;;;;;14.00;8.20;;;;;;;2.35;67.92;98231.69;24600;1346;3026114;-62
2021/12/21 00:59:13;;;;;;;13.30;7.20;;;;;;;2.50;66.89;98235.13;24591;1349;3027047;-60
2021/12/21 01:01:43;;;;;;;9.30;6.60;;;;;;;2.44;66.75;98238.33;24589;1352;3050913;-59
2021/12/21 01:04:21;;;;;;;11.00;7.10;;;;;;;2.32;67.32;98242.69;24628;1343;3026736;-61
2021/12/21 01:12:44;;;;;;;7.70;5.60;;;;;;;1.86;68.30;98248.08;24634;1345;3054863;-61
2021/12/21 01:15:28;;;;;;;10.50;6.80;;;;;;;1.70;69.02;98246.53;24651;1345;3051429;-62
2021/12/21 01:18:03;;;;;;;7.30;5.50;;;;;;;1.64;69.24;98249.70;24600;1347;3055731;-61
2021/12/21 01:28:14;;;;;;;8.90;6.50;;;;;;;1.40;70.38;98262.30;24595;1350;3026761;-59
2021/12/21 01:34:07;;;;;;;13.40;8.10;;;;;;;1.41;71.43;98268.84;24601;1346;3056407;-60
2021/12/21 01:36:32;;;;;;;11.90;7.50;;;;;;;1.28;71.50;98271.06;24593;1349;3052917;-62
2021/12/21 01:39:12;;;;;;;8.60;6.30;;;;;;;1.15;72.23;98274.58;24533;1339;3052841;-60
2021/12/21 01:41:52;;;;;;;7.30;6.00;;;;;;;0.90;72.52;98276.61;24568;1346;3052377;-59
2021/12/21 01:49:44;;;;;;;5.20;2.80;;;;;;;1.29;72.27;98269.16;24599;1345;3051397;-61
2021/12/21 01:52:15;;;;;;;4.30;3.30;;;;;;;1.78;69.70;98266.90;24623;1349;3068669;-60
2021/12/21 01:54:44;;;;;;;4.10;3.30;;;;;;;1.84;69.26;98269.38;24588;1348;3026442;-63
2021/12/21 01:57:13;;;;;;;3.70;2.70;;;;;;;1.81;69.05;98278.85;24604;1348;3026596;-62
2021/12/21 01:59:42;;;;;;;4.00;2.40;;;;;;;1.70;68.49;98281.73;24585;1348;3070231;-63
2021/12/21 02:02:14;;;;;;;4.10;2.50;;;;;;;1.56;68.43;98282.68;24594;1349;3027183;-58
2021/12/21 02:04:43;;;;;;;4.90;2.30;;;;;;;1.39;68.18;98285.48;24623;1349;3026625;-60
2021/12/21 02:07:13;;;;;;;3.20;2.30;;;;;;;1.11;68.66;98287.64;24608;1350;3026978;-61
2021/12/21 02:09:42;;;;;;;3.30;2.30;;;;;;;0.98;68.76;98283.54;24662;1346;3026750;-61
2021/12/21 02:12:13;;;;;;;4.20;2.90;;;;;;;0.85;69.00;98283.34;24590;1350;3026643;-59
2021/12/21 02:14:44;;;;;;;3.80;2.70;;;;;;;0.61;69.76;98290.33;24612;1352;3052184;-61
2021/12/21 02:22:49;;;;;;;5.20;3.60;;;;;;;0.43;70.79;98298.07;24572;1349;3055443;-60
2021/12/21 02:27:57;;;;;;;4.50;3.10;;;;;;;0.57;70.18;98305.81;24560;1348;3028569;-61
2021/12/21 02:30:26;;;;;;;4.50;3.20;;;;;;;0.52;69.55;98309.44;24598;1343;3051679;-60
2021/12/21 02:32:56;;;;;;;5.60;3.30;;;;;;;0.46;69.52;98307.79;24598;1346;3026171;-60
2021/12/21 02:35:24;;;;;;;12.00;5.70;;;;;;;0.36;69.63;98308.68;24609;1345;3026430;-60
2021/12/21 02:37:53;;;;;;;10.40;5.70;;;;;;;0.33;69.68;98311.70;24602;1345;3055297;-62
2021/12/21 02:40:22;;;;;;;8.90;4.70;;;;;;;0.31;69.79;98316.61;24637;1346;3026844;-60
2021/12/21 02:42:51;;;;;;;10.10;5.80;;;;;;;0.19;69.85;98317.07;24589;1346;3049621;-60
2021/12/21 02:45:21;;;;;;;7.30;4.90;;;;;;;0.18;70.06;98321.90;24599;1348;3026876;-59
2021/12/21 02:47:50;;;;;;;6.40;4.50;;;;;;;0.26;69.62;98321.81;24659;1352;3026587;-63
2021/12/21 02:50:19;;;;;;;7.60;5.20;;;;;;;0.25;69.28;98321.47;24572;1350;3051790;-62
2021/12/21 02:52:48;;;;;;;8.00;5.30;;;;;;;0.24;68.98;98323.07;24614;1352;3027352;-62
2021/12/21 02:55:17;;;;;;;10.40;6.10;;;;;;;0.27;69.30;98325.73;24599;1349;3058177;-60
2021/12/21 02:57:47;;;;;;;7.80;5.10;;;;;;;0.17;69.54;98332.61;24577;1346;3026460;-61
2021/12/21 03:00:16;;;;;;;9.10;5.20;;;;;;;0.15;69.71;98332.87;24629;1345;3026449;-60
2021/12/21 03:02:45;;;;;;;9.40;5.10;;;;;;;0.10;69.99;98339.93;24583;1349;3028540;-58
2021/12/21 03:05:14;;;;;;;7.80;5.00;;;;;;;0.11;69.52;98342.98;24590;1345;3049039;-58
2021/12/21 03:10:23;;;;;;;9.10;4.90;;;;;;;0.02;69.01;98360.70;24612;1347;3055983;-60
2021/12/21 03:15:24;;;;;;;5.30;3.70;;;;;;;-0.29;69.04;98361.09;24357;1348;3384401;-59
2021/12/21 03:18:07;;;;;;;6.30;4.20;;;;;;;-0.30;69.22;98364.58;24594;1352;3054337;-61
2021/12/21 03:20:36;;;;;;;7.80;3.80;;;;;;;-0.55;70.42;98372.11;24615;1347;3026598;-57
2021/12/21 03:23:05;;;;;;;6.30;3.50;;;;;;;-0.55;70.74;98374.52;24614;1348;3027234;-60
2021/12/21 03:25:38;;;;;;;6.50;3.50;;;;;;;-0.64;71.10;98376.35;24621;1346;3053413;-58
2021/12/21 03:28:07;;;;;;;4.90;3.20;;;;;;;-0.84;70.76;98377.31;24610;1346;3026491;-60
2021/12/21 03:30:36;;;;;;;4.80;3.40;;;;;;;-0.98;70.78;98381.03;24600;1348;3053855;-59
2021/12/21 03:33:05;;;;;;;4.20;3.00;;;;;;;-1.26;70.93;98378.63;24632;1346;3026589;-60
2021/12/21 03:35:34;;;;;;;6.00;2.30;;;;;;;-1.42;70.94;98384.60;24616;1353;3049247;-59
2021/12/21 03:38:03;;;;;;;3.30;2.10;;;;;;;-1.59;71.44;98386.13;24580;1348;3026739;-60
2021/12/21 03:40:34;;;;;;;3.10;2.10;;;;;;;-1.69;71.41;98385.70;24608;1348;3057391;-60
2021/12/21 03:43:03;;;;;;;3.60;2.30;;;;;;;-1.73;72.13;98381.52;24582;1351;3026099;-61
2021/12/21 03:45:38;;;;;;;5.90;2.70;;;;;;;-1.81;72.54;98382.78;24570;1350;3054233;-58
2021/12/21 03:48:12;;;;;;;3.00;2.30;;;;;;;-1.86;72.57;98390.30;24589;1345;3056220;-60
2021/12/21 03:50:41;;;;;;;4.40;3.10;;;;;;;-1.88;72.35;98398.25;24617;1347;3049783;-60
2021/12/21 03:53:10;;;;;;;3.40;2.60;;;;;;;-1.99;72.85;98402.49;24638;1348;3026946;-61
2021/12/21 03:55:39;;;;;;;5.40;2.90;;;;;;;-1.92;72.78;98403.86;24595;1351;3056156;-62
2021/12/21 03:58:08;;;;;;;5.60;4.00;;;;;;;-1.91;72.95;98405.54;24617;1346;3025978;-63
2021/12/21 04:00:38;;;;;;;5.60;3.60;;;;;;;-1.84;73.22;98406.72;24564;1349;3053734;-59
2021/12/21 04:03:07;;;;;;;3.50;2.60;;;;;;;-1.15;71.60;98400.61;24601;1350;3027833;-62
2021/12/21 04:05:37;;;;;;;2.50;1.70;;;;;;;-0.36;68.92;98394.20;24585;1352;3027375;-61
2021/12/21 04:08:06;;;;;;;2.10;1.60;;;;;;;-0.29;68.21;98395.54;24645;1343;3027118;-62
2021/12/21 04:10:35;;;;;;;4.30;1.70;;;;;;;-0.59;68.41;98401.99;24597;1351;3058519;-64
2021/12/21 04:13:09;;;;;;;2.40;1.50;;;;;;;-1.11;69.50;98412.54;24607;1348;3027222;-62
2021/12/21 04:15:42;;;;;;;2.40;1.60;;;;;;;-1.34;70.54;98417.36;24620;1348;3054591;-62
2021/12/21 04:18:16;;;;;;;3.10;1.50;;;;;;;-1.49;71.03;98421.23;24616;1348;3059701;-61
2021/12/21 04:20:47;;;;;;;3.30;2.40;;;;;;;-1.51;71.42;98417.31;24578;1346;3051500;-60
2021/12/21 04:23:16;;;;;;;3.60;2.40;;;;;;;-1.57;71.69;98419.71;24574;1348;3026644;-62
2021/12/21 04:25:45;;;;;;;3.10;2.20;;;;;;;-1.65;71.83;98418.56;24617;1351;3058829;-63
2021/12/21 04:28:15;;;;;;;3.70;1.70;;;;;;;-1.95;72.04;98417.66;24589;1349;3026530;-61
2021/12/21 04:30:45;;;;;;;2.90;1.60;;;;;;;-1.91;71.91;98413.77;24584;1348;3026989;-64
2021/12/21 04:33:14;;;;;;;2.70;1.40;;;;;;;-1.91;72.30;98422.70;24622;1348;3026388;-62
2021/12/21 04:35:42;;;;;;;2.70;1.60;;;;;;;-1.91;72.28;98422.87;24587;1351;3048131;-63
2021/12/21 04:38:22;;;;;;;2.30;1.10;;;;;;;-1.82;71.99;98431.55;24613;1349;3027978;-62
2021/12/21 04:40:57;;;;;;;2.60;1.50;;;;;;;-1.76;71.54;98432.77;24578;1348;3058886;-63
2021/12/21 04:43:26;;;;;;;2.70;1.60;;;;;;;-1.70;71.25;98437.94;24589;1354;3049649;-60
2021/12/21 04:45:56;;;;;;;3.20;1.60;;;;;;;-1.77;71.46;98442.92;24591;1350;3026752;-62
2021/12/21 04:48:25;;;;;;;2.70;1.70;;;;;;;-1.79;71.56;98447.80;24591;1348;3026877;-61
2021/12/21 04:50:54;;;;;;;4.90;1.90;;;;;;;-1.80;71.62;98454.00;24601;1349;3048909;-62
2021/12/21 04:53:24;;;;;;;3.40;2.10;;;;;;;-1.85;71.97;98457.58;24598;1350;3027523;-62
2021/12/21 04:55:53;;;;;;;6.20;2.50;;;;;;;-1.81;71.71;98456.24;24607;1342;3027224;-61
2021/12/21 04:58:22;;;;;;;3.30;2.00;;;;;;;-1.80;71.34;98450.58;24613;1346;3027134;-61
2021/12/21 05:00:52;;;;;;;3.80;2.20;;;;;;;-1.79;71.42;98456.02;24642;1346;3056408;-63
2021/12/21 05:03:20;;;;;;;4.20;2.20;;;;;;;-1.72;71.52;98460.81;24569;1345;3028601;-61
2021/12/21 05:05:52;;;;;;;4.60;2.40;;;;;;;-1.72;71.13;98467.53;24590;1345;3051482;-60
2021/12/21 05:08:25;;;;;;;4.30;2.20;;;;;;;-1.67;71.08;98472.70;24609;1345;3027616;-63
2021/12/21 05:11:01;;;;;;;2.70;1.80;;;;;;;-1.79;71.36;98479.21;24625;1346;3026591;-61
2021/12/21 05:13:33;;;;;;;6.60;2.80;;;;;;;-1.85;71.44;98486.41;24603;1349;3071713;-63
2021/12/21 05:16:02;;;;;;;6.80;3.90;;;;;;;-1.94;72.15;98496.08;24601;1346;3026542;-61
2021/12/21 05:18:32;;;;;;;6.40;4.10;;;;;;;-1.81;72.11;98497.63;24614;1350;3027075;-62
2021/12/21 05:21:02;;;;;;;7.60;3.90;;;;;;;-1.75;71.83;98503.81;24601;1350;3027431;-62
2021/12/21 05:23:31;;;;;;;7.00;3.60;;;;;;;-1.64;71.31;98511.26;24565;1350;3027361;-63
2021/12/21 05:26:00;;;;;;;4.90;3.40;;;;;;;-1.63;71.70;98509.88;24613;1349;3026571;-62
2021/12/21 05:28:29;;;;;;;5.50;3.70;;;;;;;-1.52;71.71;98514.40;24582;1342;3051275;-62
2021/12/21 05:30:58;;;;;;;7.10;3.60;;;;;;;-0.97;70.11;98516.29;24609;1346;3030168;-63
2021/12/21 05:33:28;;;;;;;5.30;2.70;;;;;;;-0.41;67.64;98518.42;24581;1348;3051403;-60
2021/12/21 05:35:57;;;;;;;3.50;2.20;;;;;;;-0.31;66.75;98517.75;24620;1343;3027220;-60
2021/12/21 05:38:32;;;;;;;3.80;2.50;;;;;;;-0.23;66.19;98523.00;24622;1345;3027088;-60
2021/12/21 05:41:04;;;;;;;4.30;2.70;;;;;;;-0.32;66.65;98530.70;24630;1353;3054937;-62
2021/12/21 05:43:33;;;;;;;7.40;3.20;;;;;;;-0.29;66.82;98531.30;24628;1345;3026462;-61
2021/12/21 05:46:02;;;;;;;4.30;2.50;;;;;;;-0.63;67.02;98530.77;24587;1349;3026685;-61
2021/12/21 05:48:31;;;;;;;4.60;2.50;;;;;;;-0.85;67.84;98537.27;24627;1349;3054042;-63
2021/12/21 05:51:00;;;;;;;6.50;2.80;;;;;;;-0.99;68.71;98535.97;24608;1349;3026358;-60
2021/12/21 05:53:29;;;;;;;5.30;3.50;;;;;;;-0.95;68.73;98541.00;24599;1345;3048962;-61
2021/12/21 05:55:58;;;;;;;5.20;3.00;;;;;;;-1.10;68.91;98543.99;24622;1345;3026507;-62
2021/12/21 05:58:27;;;;;;;7.80;3.50;;;;;;;-1.07;69.15;98548.39;24582;1345;3069001;-60
2021/12/21 06:00:56;;;;;;;5.90;3.70;;;;;;;-1.16;69.32;98549.67;24570;1350;3026720;-61
2021/12/21 06:03:25;;;;;;;6.20;3.40;;;;;;;-1.18;69.91;98554.02;24601;1353;3053153;-60
2021/12/21 06:05:54;;;;;;;8.00;3.80;;;;;;;-1.20;69.32;98555.29;24614;1352;3026693;-60
2021/12/21 06:08:26;;;;;;;5.60;3.40;;;;;;;-1.21;69.56;98559.43;24629;1352;3026623;-61
2021/12/21 06:10:56;;;;;;;4.90;2.80;;;;;;;-1.38;69.43;98561.59;24627;1346;3029014;-62
2021/12/21 06:13:48;;;;;;;3.40;2.20;;;;;;;-1.58;70.12;98571.58;24622;1350;3026607;-63
2021/12/21 06:25:36;;;;;;;4.60;3.10;;;;;;;-1.43;70.18;98579.61;24588;1341;3054458;-61
2021/12/21 06:27:41;;;;;;;6.20;3.30;;;;;;;-1.39;70.61;98579.83;24544;1354;3071214;-62
2021/12/21 06:30:11;;;;;;;5.50;3.00;;;;;;;-1.31;70.04;98582.89;24666;1345;3026578;-60
2021/12/21 06:32:41;;;;;;;6.00;3.90;;;;;;;-1.34;70.17;98584.34;24644;1345;3026479;-61
2021/12/21 06:35:11;;;;;;;5.20;3.00;;;;;;;-1.36;70.57;98585.80;24579;1347;3027259;-62
2021/12/21 06:37:41;;;;;;;7.00;4.30;;;;;;;-1.27;69.94;98583.48;24598;1350;3026703;-61
2021/12/21 06:40:10;;;;;;;6.10;3.90;;;;;;;-1.24;70.17;98590.45;24580;1346;3026216;-61
2021/12/21 06:42:41;;;;;;;5.70;3.40;;;;;;;-1.35;70.27;98593.82;24587;1346;3027295;-61
2021/12/21 06:45:24;;;;;;;6.40;3.50;;;;;;;-1.39;70.87;98594.61;24625;1346;3026430;-62
2021/12/21 06:53:28;;;;;;;4.60;3.30;;;;;;;-1.62;71.96;98601.88;24636;1349;3053226;-63
2021/12/21 06:55:57;;;;;;;6.30;3.90;;;;;;;-1.69;72.26;98603.80;24603;1350;3027063;-61
2021/12/21 06:58:26;;;;;;;10.50;4.90;;;;;;;-1.60;72.03;98602.37;24615;1345;3051693;-60
2021/12/21 07:00:56;;;;;;;6.70;3.90;;;;;;;-1.57;71.93;98608.48;24763;1346;3026693;-62
2021/12/21 07:03:26;;;;;;;8.70;4.60;;;;;;;-1.62;71.76;98612.19;24603;1349;3068566;-62
2021/12/21 07:05:55;;;;;;;6.70;4.10;;;;;;;-1.65;72.10;98613.81;24588;1354;3026272;-63
2021/12/21 07:08:28;;;;;;;6.70;4.20;;;;;;;-1.66;72.20;98618.48;24589;1348;3026745;-61
2021/12/21 07:19:21;;;;;;;7.50;4.00;;;;;;;-1.23;71.01;98622.73;24610;1346;3054492;-60
2021/12/21 07:21:50;;;;;;;9.60;5.00;;;;;;;-1.19;70.54;98626.05;24591;1344;3026200;-63
2021/12/21 07:24:19;;;;;;;12.90;6.70;;;;;;;-1.38;70.99;98631.01;24586;1346;3051710;-62
2021/12/21 07:26:48;;;;;;;13.40;6.80;;;;;;;-1.57;71.62;98632.00;24578;1349;3026300;-59
2021/12/21 07:29:17;;;;;;;13.20;7.60;;;;;;;-1.64;72.05;98638.34;24596;1346;3051189;-63
2021/12/21 07:31:47;;;;;;;12.10;6.80;;;;;;;-1.49;71.89;98639.52;24584;1352;3027231;-59
2021/12/21 07:34:16;;;;;;;11.70;5.30;;;;;;;-1.42;71.43;98642.80;24620;1352;3026557;-60
2021/12/21 07:36:46;;;;;;;7.90;4.80;;;;;;;-1.58;71.55;98645.60;24582;1352;3047570;-61
2021/12/21 07:39:17;;;;;;;8.80;5.50;;;;;;;-1.43;71.16;98644.19;24585;1354;3027094;-60
2021/12/21 07:41:47;;;;;;;11.30;5.80;;;;;;;-1.48;71.37;98646.89;24641;1350;3026579;-59
2021/12/21 07:44:16;;;;;;;6.80;4.70;;;;;;;-1.50;71.14;98646.78;24541;1352;3026783;-63
2021/12/21 07:46:46;;;;;;;10.50;5.40;;;;;;;-1.70;71.50;98650.68;24555;1348;3026152;-62
2021/12/21 07:49:15;;;;;;;7.30;4.30;;;;;;;-1.70;71.09;98652.05;24610;1351;3026488;-63
2021/12/21 07:51:45;;;;;;;8.70;4.60;;;;;;;-1.63;71.12;98655.34;24589;1349;3055552;-65
2021/12/21 07:54:14;;;;;;;6.30;4.30;;;;;;;-1.56;71.07;98660.98;24690;1346;3026689;-63
2021/12/21 07:56:44;;;;;;;7.70;4.60;;;;;;;-1.39;70.78;98668.83;24653;1350;3027533;-62
2021/12/21 07:59:14;;;;;;;8.70;5.20;;;;;;;-1.40;70.46;98666.78;24624;1345;3026821;-63
2021/12/21 08:01:43;;;;;;;8.60;5.30;;;;;;;-1.63;71.33;98661.17;24588;1346;3027689;-62
2021/12/21 08:04:26;;;;;;;10.50;5.30;;;;;;;-1.46;71.12;98658.36;24563;1352;3056134;-62
2021/12/21 08:06:59;;;;;;;10.10;4.70;;;;;;;-1.39;70.89;98662.27;24606;1352;3054078;-59
2021/12/21 08:09:36;;;;;;;8.40;4.80;;;;;;;-1.15;70.07;98655.52;24653;1352;3026010;-64
2021/12/21 08:12:18;;;;;;;6.00;4.00;;;;;;;-1.12;69.54;98655.79;24633;1352;3048473;-60
2021/12/21 08:14:50;;;;;;;7.40;5.00;;;;;;;-1.32;69.67;98664.19;24599;1346;3055154;-59
2021/12/21 08:17:19;;;;;;;6.90;4.10;;;;;;;-1.34;70.21;98666.64;24609;1351;3026337;-64
2021/12/21 08:19:47;;;;;;;6.90;4.10;;;;;;;-1.24;69.69;98667.77;4906;1352;3139812;-61
2021/12/21 08:22:30;;;;;;;9.20;6.60;;;;;;;-1.14;69.48;98660.98;13421;1353;3128749;-66
2021/12/21 08:25:09;;;;;;;9.10;4.40;;;;;;;-0.94;68.62;98657.72;24635;1349;3055299;-63
2021/12/21 08:27:39;;;;;;;8.50;4.70;;;;;;;-1.27;69.45;98663.23;25436;1349;3026231;-62
2021/12/21 08:30:09;;;;;;;8.40;4.90;;;;;;;-1.19;68.98;98661.29;24709;1348;3026724;-60
2021/12/21 08:32:39;;;;;;;6.10;4.00;;;;;;;-1.50;69.23;98667.72;24628;1350;3027361;-63
2021/12/21 08:35:08;;;;;;;6.10;3.60;;;;;;;-1.56;69.53;98668.90;24604;1352;3026652;-64
2021/12/21 08:37:37;;;;;;;6.50;4.40;;;;;;;-1.62;69.65;98673.68;24586;1353;3049425;-61
2021/12/21 08:40:08;;;;;;;6.50;4.40;;;;;;;-1.69;69.66;98672.14;24615;1343;3029572;-63
2021/12/21 08:42:39;;;;;;;6.80;4.70;;;;;;;-1.67;69.16;98671.91;24611;1353;3054501;-64
2021/12/21 08:45:08;;;;;;;7.80;4.70;;;;;;;-1.53;68.98;98673.11;24611;1352;3026281;-60
2021/12/21 08:47:38;;;;;;;6.70;3.90;;;;;;;-1.48;68.65;98675.57;24605;1354;3026828;-61
2021/12/21 08:50:09;;;;;;;5.90;4.10;;;;;;;-1.76;69.09;98677.44;24600;1350;3027136;-64
2021/12/21 08:52:39;;;;;;;6.40;3.80;;;;;;;-1.87;69.38;98677.86;24583;1346;3052691;-64
2021/12/21 08:55:09;;;;;;;9.70;4.40;;;;;;;-2.20;70.36;98685.09;24645;1350;3026783;-62
2021/12/21 08:57:38;;;;;;;6.60;4.60;;;;;;;-2.28;71.17;98684.41;24617;1349;3059507;-60
2021/12/21 09:00:08;;;;;;;6.50;3.50;;;;;;;-2.34;70.71;98681.61;24603;1342;3026588;-62
2021/12/21 09:02:38;;;;;;;8.50;4.80;;;;;;;-2.33;71.23;98685.37;24634;1349;3055906;-61
2021/12/21 09:05:16;;;;;;;7.90;4.80;;;;;;;-2.47;71.57;98691.48;24623;1352;3030069;-64
2021/12/21 09:07:48;;;;;;;5.60;4.30;;;;;;;-2.27;71.20;98691.08;24606;1346;3052981;-63
2021/12/21 09:10:18;;;;;;;6.80;4.60;;;;;;;-2.25;70.35;98685.38;24581;1352;3026612;-63
2021/12/21 09:12:48;;;;;;;9.30;4.00;;;;;;;-2.14;70.17;98686.85;24628;1352;3026402;-64
2021/12/21 09:15:17;;;;;;;8.10;4.90;;;;;;;-2.28;70.08;98689.91;24579;1348;3026817;-58
2021/12/21 09:17:47;;;;;;;6.40;4.20;;;;;;;-2.37;70.48;98695.73;24603;1345;3030566;-64
2021/12/21 09:20:18;;;;;;;6.80;4.70;;;;;;;-2.41;70.99;98694.10;24660;1350;3026755;-58
2021/12/21 09:22:47;;;;;;;6.90;4.10;;;;;;;-2.15;69.42;98693.77;24610;1345;3026508;-59
2021/12/21 09:25:16;;;;;;;6.40;4.40;;;;;;;-2.08;68.61;98694.30;24641;1352;3026325;-59
2021/12/21 09:27:47;;;;;;;7.80;4.30;;;;;;;-1.88;67.90;98695.23;24631;1349;3051990;-60
2021/12/21 09:30:17;;;;;;;7.00;5.00;;;;;;;-2.11;67.18;98702.06;24605;1354;3027061;-60
2021/12/21 09:32:47;;;;;;;7.20;5.00;;;;;;;-1.92;67.33;98699.09;24612;1352;3051079;-60
2021/12/21 09:35:15;;;;;;;7.40;4.50;;;;;;;-1.86;66.75;98698.63;24603;1347;3026993;-61
2021/12/21 09:37:45;;;;;;;7.30;4.40;;;;;;;-1.78;66.11;98700.83;24603;1346;3026805;-59
2021/12/21 09:40:22;;;;;;;11.60;5.10;;;;;;;-1.74;65.70;98700.23;24630;1351;3051817;-56
2021/12/21 09:42:51;;;;;;;9.40;5.50;;;;;;;-1.88;65.94;98696.59;24616;1352;3055743;-59
2021/12/21 09:45:20;;;;;;;11.90;6.40;;;;;;;-1.76;65.69;98695.81;24589;1352;3028560;-59
2021/12/21 09:47:50;;;;;;;10.90;6.40;;;;;;;-1.90;65.90;98699.20;24600;1352;3048909;-58
2021/12/21 09:50:20;;;;;;;14.40;7.70;;;;;;;-1.78;65.91;98698.26;24613;1352;3026945;-59
2021/12/21 09:52:50;;;;;;;10.20;5.60;;;;;;;-1.67;65.95;98702.98;24605;1352;3069182;-62
2021/12/21 09:55:19;;;;;;;10.70;6.30;;;;;;;-1.49;65.61;98705.14;24600;1350;3027591;-63
2021/12/21 09:57:49;;;;;;;17.20;7.30;;;;;;;-1.45;65.35;98704.70;24592;1352;3051882;-60
2021/12/21 10:00:23;;;;;;;12.60;6.60;;;;;;;-1.49;64.95;98709.95;24601;1352;3026748;-60
2021/12/21 10:02:52;;;;;;;12.60;6.00;;;;;;;-1.72;64.75;98709.79;24579;1353;3049119;-62
2021/12/21 10:05:24;;;;;;;11.00;5.70;;;;;;;-1.63;64.89;98707.20;24653;1352;3026594;-62
2021/12/21 10:08:04;;;;;;;13.90;6.10;;;;;;;-1.70;64.78;98703.75;24594;1351;3026485;-59
2021/12/21 10:10:42;;;;;;;10.10;6.40;;;;;;;-1.76;65.32;98698.73;24614;1348;3058602;-61
2021/12/21 10:13:13;;;;;;;12.40;6.60;;;;;;;-1.80;65.85;98694.52;24545;1347;3049782;-63
2021/12/21 10:15:47;;;;;;;17.20;7.20;;;;;;;-1.75;65.59;98693.55;24584;1349;3029116;-63
2021/12/21 10:21:16;;;;;;;14.70;7.10;;;;;;;-1.97;66.55;98699.88;24583;1345;3067913;-58
2021/12/21 10:23:50;;;;;;;9.20;4.20;;;;;;;-2.07;66.19;98700.10;24430;1354;3026106;-58
2021/12/21 10:26:24;;;;;;;8.70;3.40;;;;;;;-2.21;66.05;98714.80;24432;1360;3052044;-60
2021/12/21 10:29:44;;;;;;;6.20;2.80;;;;;;;-2.22;66.11;98708.64;23277;1357;3051453;-63
2021/12/21 10:33:06;;;;;;;3.20;2.20;;;;;;;-2.25;65.87;98711.63;13572;1364;3072768;-66
2021/12/21 10:36:29;;;;;;;4.70;2.70;;;;;;;-2.47;67.54;98713.80;23894;1357;3066788;-61
2021/12/21 10:39:32;;;;;;;6.30;3.20;;;;;;;-2.33;67.03;98710.23;11394;1364;3038712;-63
2021/12/21 10:42:02;;;;;;;4.90;2.50;;;;;;;-2.43;66.77;98721.09;24526;1358;3051398;-63
2021/12/21 10:45:04;;;;;;;3.30;1.80;;;;;;;-2.51;65.79;98706.48;18955;1361;3034198;-63
2021/12/21 10:48:25;;;;;;;4.00;2.10;;;;;;;-2.54;66.13;98713.58;13499;1362;3051614;-63
2021/12/21 10:52:08;;;;;;;4.00;2.10;;;;;;;-2.64;67.10;98730.58;9248;1362;3220249;-61
2021/12/21 11:14:13;;;;;;;4.00;2.10;;;;;;;-1.19;57.37;98725.73;5313;1357;3369603;-63
2021/12/21 11:16:47;;;;;;;2.60;1.80;;;;;;;-1.10;56.70;98735.48;24419;1357;3050968;-58
2021/12/21 11:19:19;;;;;;;2.00;1.10;;;;;;;-1.65;57.02;98737.95;24382;1361;3069043;-62
2021/12/21 11:21:50;;;;;;;3.70;1.50;;;;;;;-2.20;58.62;98735.89;24366;1357;3049282;-58
2021/12/21 11:24:19;;;;;;;3.00;1.40;;;;;;;-2.40;59.84;98739.20;24433;1357;3026832;-60
2021/12/21 11:26:48;;;;;;;3.40;2.20;;;;;;;-2.57;60.15;98746.92;24605;1348;3027078;-58
2021/12/21 11:29:18;;;;;;;2.70;1.60;;;;;;;-2.56;60.87;98741.05;24504;1358;3026511;-60
2021/12/21 11:31:51;;;;;;;2.30;1.40;;;;;;;-2.76;61.76;98749.83;24453;1358;3026925;-60
2021/12/21 11:34:24;;;;;;;3.00;1.40;;;;;;;-2.93;62.21;98750.30;24497;1354;3056477;-62
2021/12/21 11:39:42;;;;;;;3.40;2.20;;;;;;;-3.02;63.01;98756.61;24437;1354;3068875;-60
2021/12/21 11:42:24;;;;;;;6.40;3.10;;;;;;;-2.90;62.64;98757.77;24975;1351;3026059;-59
2021/12/21 11:44:55;;;;;;;11.00;4.60;;;;;;;-2.86;62.66;98760.11;25174;1355;3052936;-58
2021/12/21 11:47:30;;;;;;;15.10;5.50;;;;;;;-2.86;62.83;98763.89;24834;1361;3026349;-57
2021/12/21 11:50:00;;;;;;;7.20;2.70;;;;;;;-2.86;63.11;98765.27;24908;1357;3055376;-58
2021/12/21 11:52:29;;;;;;;3.70;2.10;;;;;;;-3.07;63.62;98770.56;21998;1354;3053163;-61
2021/12/21 11:55:05;;;;;;;6.20;2.40;;;;;;;-3.21;64.19;98772.00;24580;1358;3026541;-64
2021/12/21 11:57:45;;;;;;;13.10;4.40;;;;;;;-3.44;64.54;98780.23;24471;1354;3055637;-59
2021/12/21 12:00:16;;;;;;;5.70;2.70;;;;;;;-3.49;65.19;98787.84;24451;1355;3048374;-58
2021/12/21 12:02:46;;;;;;;9.30;3.00;;;;;;;-3.45;65.74;98782.30;24440;1359;3026551;-60
2021/12/21 12:05:30;;;;;;;5.80;2.60;;;;;;;-3.22;64.81;98786.23;24536;1354;3026925;-62
2021/12/21 12:08:04;;;;;;;5.90;2.70;;;;;;;-3.18;64.62;98790.96;24472;1360;3069854;-59
2021/12/21 12:10:37;;;;;;;6.20;3.40;;;;;;;-3.40;65.36;98788.21;24444;1361;3049841;-61
2021/12/21 12:13:08;;;;;;;6.40;3.10;;;;;;;-3.62;66.10;98793.66;24542;1360;3026473;-62
2021/12/21 12:15:52;;;;;;;7.00;3.00;;;;;;;-3.62;66.29;98795.04;24493;1357;3028157;-57
2021/12/21 12:18:23;;;;;;;4.80;2.10;;;;;;;-3.78;66.15;98803.83;24480;1354;3055261;-62
2021/12/21 12:20:53;;;;;;;7.20;2.30;;;;;;;-3.73;66.47;98797.92;24465;1354;3026575;-62
2021/12/21 12:23:22;;;;;;;5.80;2.40;;;;;;;-3.75;66.40;98804.11;24511;1357;3026579;-60
2021/12/21 12:25:56;;;;;;;8.70;3.60;;;;;;;-3.97;66.62;98809.00;24480;1357;3026282;-62
2021/12/21 12:28:35;;;;;;;5.70;2.50;;;;;;;-4.14;66.90;98814.36;24470;1354;3072222;-62
2021/12/21 12:31:03;;;;;;;5.10;2.10;;;;;;;-4.09;66.62;98813.60;24427;1355;3049564;-63
2021/12/21 12:33:39;;;;;;;7.70;3.40;;;;;;;-4.34;67.39;98823.97;24461;1357;3026938;-59
2021/12/21 12:38:25;;;;;;;6.00;2.60;;;;;;;-4.46;68.16;98822.55;30782;1357;3025771;-61
2021/12/21 12:40:56;;;;;;;14.10;7.30;;;;;;;-4.11;67.56;98821.66;24422;1360;3026380;-61
2021/12/21 12:43:27;;;;;;;5.30;3.50;;;;;;;-3.87;66.23;98823.09;24458;1364;3027558;-63
2021/12/21 12:46:03;;;;;;;8.80;3.80;;;;;;;-4.13;65.61;98822.19;24495;1361;3026726;-62
2021/12/21 12:48:39;;;;;;;9.30;4.50;;;;;;;-4.31;66.26;98821.72;24416;1364;3050276;-59
2021/12/21 12:51:09;;;;;;;10.20;5.00;;;;;;;-4.24;66.43;98820.27;24325;1364;3168022;-63
2021/12/21 12:53:41;;;;;;;11.60;5.60;;;;;;;-4.33;67.49;98826.02;24500;1359;3026574;-64
2021/12/21 12:56:14;;;;;;;10.50;4.90;;;;;;;-4.27;67.03;98829.55;24373;1363;3025345;-58
2021/12/21 12:58:52;;;;;;;14.30;5.30;;;;;;;-4.13;66.21;98825.27;24437;1357;3026456;-59
2021/12/21 13:01:24;;;;;;;11.40;5.50;;;;;;;-4.14;66.10;98833.50;24457;1357;3052485;-60
2021/12/21 13:03:56;;;;;;;21.00;7.10;;;;;;;-4.39;65.79;98838.39;24369;1357;3029241;-59
2021/12/21 13:06:30;;;;;;;15.60;5.30;;;;;;;-4.25;65.83;98839.44;24479;1357;3026077;-64
2021/12/21 13:08:59;;;;;;;12.50;4.30;;;;;;;-4.40;65.58;98835.67;24539;1356;3049209;-64
2021/12/21 13:11:30;;;;;;;10.20;4.50;;;;;;;-4.42;65.67;98843.20;24494;1362;3026325;-60
2021/12/21 13:14:03;;;;;;;;;;;;;;;-4.37;65.88;98849.65;24503;1355;3056104;-64